Terminal Aerodrome Forecast
Issued by NWS Lake Charles, LA

Home | Current Version | Previous Version | Text Only | Print | Product List | Glossary On
Versions: 1 2 3 4 5 6 7 8 9 10 11 12 13 14 15 16 17 18
000
FTUS44 KLCH 220500
TAFLFT
TAF
KLFT 220522Z 2206/2306 VRB03KT P6SM FEW050
     FM220900 VRB03KT 3SM BR FEW003 SCT030
     FM221400 32005KT P6SM FEW030 SCT250
      TEMPO 2219/2223 VRB13G18KT 4SM TSRA SCT025 BKN030CB=

USA.gov is the U.S. government's official web portal to all federal, state and local government web resources and services.